BAW541A LIPE-EGLL
Flight info
| Callsign | BAW541A |
|---|---|
| Flight time | 1h 45m |
| Altitude | 36000 |
| Route | LUPOS7Z LUPOS DCT OSBUL DCT IBNAN DCT ABESI DCT UTAVO DCT HOC DCT LUL DCT RLP DCT ROTSI DCT KOTUN DCT NINAL DCT ABNUR DCT DIMAL DCT ALESO ALESO1H |
| Aircraft | A20N/M-SDGHIJ1LRWXY/SB1 |
Departure
| Time | 2026-05-04 14:41 |
|---|---|
| Airport | Bologna Guglielmo Marconi Airport (LIPE) |
Arrival
| Time | 2026-05-04 16:26 |
|---|---|
| Airport | London Heathrow Airport (EGLL) |
| Time | Latitude | Longitude | Altitude | Speed | Heading |
|---|---|---|---|---|---|
| 2026-05-04 14:28 | 44.53029 | 11.29426 | 130 ft | 0 kts | 207° |
| 2026-05-04 14:33 | 44.53043 | 11.29436 | 125 ft | 3 kts | 208° |
| 2026-05-04 14:33 | 44.53060 | 11.29448 | 127 ft | 2 kts | 203° |
| 2026-05-04 14:33 | 44.53076 | 11.29456 | 125 ft | 3 kts | 159° |
| 2026-05-04 14:34 | 44.53090 | 11.29440 | 128 ft | 3 kts | 119° |
| 2026-05-04 14:34 | 44.53093 | 11.29433 | 127 ft | 3 kts | 117° |
| 2026-05-04 14:34 | 44.53086 | 11.29451 | 126 ft | 0 kts | 116° |
| 2026-05-04 14:37 | 44.53085 | 11.29452 | 126 ft | 1 kts | 116° |
| 2026-05-04 14:37 | 44.53068 | 11.29503 | 129 ft | 12 kts | 116° |
| 2026-05-04 14:38 | 44.53101 | 11.29546 | 128 ft | 12 kts | 311° |
| 2026-05-04 14:38 | 44.53152 | 11.29407 | 129 ft | 20 kts | 296° |
| 2026-05-04 14:38 | 44.53228 | 11.29197 | 127 ft | 26 kts | 297° |
| 2026-05-04 14:38 | 44.53314 | 11.28957 | 126 ft | 29 kts | 296° |
| 2026-05-04 14:39 | 44.53405 | 11.28704 | 128 ft | 30 kts | 296° |
| 2026-05-04 14:39 | 44.53499 | 11.28443 | 126 ft | 30 kts | 297° |
| 2026-05-04 14:39 | 44.53551 | 11.28299 | 127 ft | 13 kts | 297° |
| 2026-05-04 14:40 | 44.53667 | 11.27976 | 127 ft | 22 kts | 296° |
| 2026-05-04 14:40 | 44.53740 | 11.27774 | 128 ft | 25 kts | 297° |
| 2026-05-04 14:40 | 44.53846 | 11.27576 | 128 ft | 26 kts | 343° |
| 2026-05-04 14:40 | 44.53955 | 11.27696 | 124 ft | 22 kts | 103° |
| 2026-05-04 14:41 | 44.53848 | 11.28023 | 127 ft | 67 kts | 116° |
| 2026-05-04 14:41 | 44.53540 | 11.28877 | 127 ft | 126 kts | 117° |
| 2026-05-04 14:41 | 44.52997 | 11.31501 | 839 ft | 144 kts | 66° |
| 2026-05-04 14:42 | 44.54700 | 11.32711 | 1831 ft | 154 kts | 359° |
| 2026-05-04 14:42 | 44.55829 | 11.32753 | 2200 ft | 171 kts | 6° |
| 2026-05-04 14:42 | 44.57027 | 11.33182 | 2587 ft | 190 kts | 22° |
| 2026-05-04 14:43 | 44.58250 | 11.34117 | 3034 ft | 210 kts | 34° |
| 2026-05-04 14:43 | 44.59414 | 11.35367 | 3932 ft | 211 kts | 39° |
| 2026-05-04 14:43 | 44.60743 | 11.36390 | 4594 ft | 230 kts | 12° |
| 2026-05-04 14:43 | 44.62410 | 11.36307 | 5137 ft | 254 kts | 342° |
| 2026-05-04 14:44 | 44.63970 | 11.34971 | 5666 ft | 276 kts | 312° |
| 2026-05-04 14:44 | 44.64922 | 11.32640 | 6584 ft | 277 kts | 283° |
| 2026-05-04 14:44 | 44.64997 | 11.29967 | 7545 ft | 276 kts | 255° |
| 2026-05-04 14:44 | 44.64217 | 11.27543 | 8514 ft | 274 kts | 233° |
| 2026-05-04 14:45 | 44.63091 | 11.25373 | 9534 ft | 277 kts | 233° |
| 2026-05-04 14:45 | 44.62095 | 11.23025 | 10443 ft | 285 kts | 240° |
| 2026-05-04 14:45 | 44.61290 | 11.20368 | 10869 ft | 308 kts | 248° |
| 2026-05-04 14:45 | 44.60638 | 11.17382 | 11222 ft | 331 kts | 252° |
| 2026-05-04 14:46 | 44.60080 | 11.14222 | 11999 ft | 336 kts | 254° |
| 2026-05-04 14:46 | 44.59552 | 11.11010 | 12898 ft | 339 kts | 255° |
| 2026-05-04 14:46 | 44.59028 | 11.07815 | 13760 ft | 342 kts | 255° |
| 2026-05-04 14:46 | 44.58484 | 11.04548 | 14524 ft | 346 kts | 255° |
| 2026-05-04 14:47 | 44.57926 | 11.01252 | 15284 ft | 349 kts | 255° |
| 2026-05-04 14:47 | 44.57359 | 10.97931 | 16021 ft | 352 kts | 255° |
| 2026-05-04 14:47 | 44.56782 | 10.94569 | 16762 ft | 356 kts | 255° |
| 2026-05-04 14:47 | 44.56199 | 10.91180 | 17482 ft | 359 kts | 256° |
| 2026-05-04 14:48 | 44.55611 | 10.87770 | 18199 ft | 363 kts | 256° |
| 2026-05-04 14:48 | 44.55012 | 10.84304 | 18840 ft | 367 kts | 256° |
| 2026-05-04 14:48 | 44.54408 | 10.80813 | 19454 ft | 370 kts | 256° |
| 2026-05-04 14:48 | 44.53806 | 10.77342 | 20054 ft | 373 kts | 256° |
| 2026-05-04 14:49 | 44.53191 | 10.73791 | 20665 ft | 376 kts | 256° |
| 2026-05-04 14:49 | 44.52568 | 10.70213 | 21249 ft | 380 kts | 256° |
| 2026-05-04 14:49 | 44.51978 | 10.66586 | 21823 ft | 384 kts | 261° |
| 2026-05-04 14:49 | 44.51924 | 10.62834 | 22416 ft | 389 kts | 276° |
| 2026-05-04 14:50 | 44.52603 | 10.59154 | 22985 ft | 395 kts | 291° |
| 2026-05-04 14:50 | 44.53996 | 10.55807 | 23495 ft | 403 kts | 307° |
| 2026-05-04 14:50 | 44.56020 | 10.53058 | 23981 ft | 410 kts | 322° |
| 2026-05-04 14:50 | 44.58414 | 10.50842 | 24506 ft | 413 kts | 325° |
| 2026-05-04 14:51 | 44.60847 | 10.48684 | 25011 ft | 415 kts | 325° |
| 2026-05-04 14:51 | 44.63298 | 10.46509 | 25498 ft | 418 kts | 325° |
| 2026-05-04 14:51 | 44.65755 | 10.44311 | 25979 ft | 420 kts | 324° |
| 2026-05-04 14:51 | 44.68220 | 10.42089 | 26441 ft | 422 kts | 324° |
| 2026-05-04 14:52 | 44.70695 | 10.39846 | 26895 ft | 424 kts | 324° |
| 2026-05-04 14:52 | 44.73182 | 10.37585 | 27283 ft | 429 kts | 324° |
| 2026-05-04 14:52 | 44.75697 | 10.35293 | 27656 ft | 432 kts | 324° |
| 2026-05-04 14:52 | 44.78224 | 10.32990 | 28095 ft | 434 kts | 324° |
| 2026-05-04 14:53 | 44.80730 | 10.30705 | 28496 ft | 436 kts | 324° |
| 2026-05-04 14:53 | 44.83359 | 10.28544 | 28905 ft | 440 kts | 330° |
| 2026-05-04 14:53 | 44.86124 | 10.26648 | 29294 ft | 442 kts | 331° |
| 2026-05-04 14:53 | 44.88892 | 10.24733 | 29661 ft | 445 kts | 330° |
| 2026-05-04 14:54 | 44.91715 | 10.22771 | 30043 ft | 447 kts | 330° |
| 2026-05-04 14:54 | 44.94510 | 10.20823 | 30283 ft | 452 kts | 331° |
| 2026-05-04 14:54 | 44.97343 | 10.18848 | 30515 ft | 455 kts | 331° |
| 2026-05-04 14:54 | 45.00185 | 10.16869 | 30897 ft | 456 kts | 331° |
| 2026-05-04 14:55 | 45.02989 | 10.14915 | 31258 ft | 456 kts | 331° |
| 2026-05-04 14:55 | 45.05835 | 10.12930 | 31691 ft | 455 kts | 330° |
| 2026-05-04 14:55 | 45.08664 | 10.10955 | 32157 ft | 453 kts | 330° |
| 2026-05-04 14:55 | 45.11471 | 10.08963 | 32618 ft | 449 kts | 328° |
| 2026-05-04 14:56 | 45.14118 | 10.06659 | 33061 ft | 445 kts | 322° |
| 2026-05-04 14:56 | 45.16651 | 10.04143 | 33431 ft | 444 kts | 322° |
| 2026-05-04 14:56 | 45.19184 | 10.01651 | 33869 ft | 442 kts | 321° |
| 2026-05-04 14:56 | 45.21705 | 9.99177 | 34276 ft | 440 kts | 321° |
| 2026-05-04 14:57 | 45.24213 | 9.96710 | 34603 ft | 438 kts | 321° |
| 2026-05-04 14:57 | 45.26712 | 9.94246 | 34909 ft | 438 kts | 321° |
| 2026-05-04 14:57 | 45.29214 | 9.91773 | 35209 ft | 437 kts | 321° |
| 2026-05-04 14:57 | 45.31701 | 9.89313 | 35497 ft | 436 kts | 321° |
| 2026-05-04 14:58 | 45.34183 | 9.86854 | 35768 ft | 435 kts | 321° |
| 2026-05-04 14:58 | 45.36674 | 9.84383 | 36036 ft | 436 kts | 321° |
| 2026-05-04 14:58 | 45.41638 | 9.79452 | 36120 ft | 434 kts | 321° |
| 2026-05-04 14:59 | 45.46553 | 9.74559 | 36144 ft | 434 kts | 321° |
| 2026-05-04 15:00 | 45.53992 | 9.67133 | 36174 ft | 435 kts | 321° |
| 2026-05-04 15:00 | 45.58957 | 9.62162 | 36184 ft | 437 kts | 321° |
| 2026-05-04 15:01 | 45.63951 | 9.57152 | 36078 ft | 439 kts | 321° |
| 2026-05-04 15:01 | 45.66445 | 9.54647 | 36076 ft | 437 kts | 321° |
| 2026-05-04 15:01 | 45.71411 | 9.49649 | 36083 ft | 437 kts | 321° |
| 2026-05-04 15:02 | 45.76377 | 9.44640 | 36089 ft | 438 kts | 321° |
| 2026-05-04 15:02 | 45.81369 | 9.39591 | 36086 ft | 440 kts | 321° |
| 2026-05-04 15:03 | 45.86366 | 9.34529 | 36080 ft | 439 kts | 321° |
| 2026-05-04 15:03 | 45.91307 | 9.29513 | 36067 ft | 437 kts | 321° |
| 2026-05-04 15:04 | 45.96263 | 9.24468 | 36082 ft | 439 kts | 321° |
| 2026-05-04 15:04 | 46.01288 | 9.19337 | 36077 ft | 441 kts | 321° |
| 2026-05-04 15:05 | 46.06277 | 9.14235 | 36088 ft | 444 kts | 321° |
| 2026-05-04 15:05 | 46.11298 | 9.09093 | 36076 ft | 443 kts | 321° |
| 2026-05-04 15:06 | 46.16820 | 9.05041 | 36075 ft | 451 kts | 338° |
| 2026-05-04 15:07 | 46.26240 | 9.02926 | 36088 ft | 462 kts | 351° |
| 2026-05-04 15:07 | 46.32634 | 9.02057 | 36083 ft | 460 kts | 351° |
| 2026-05-04 15:08 | 46.38918 | 9.00649 | 36079 ft | 455 kts | 338° |
| 2026-05-04 15:08 | 46.44477 | 8.96580 | 36085 ft | 445 kts | 319° |
| 2026-05-04 15:09 | 46.49147 | 8.90855 | 36084 ft | 442 kts | 316° |
| 2026-05-04 15:09 | 46.53825 | 8.85055 | 36072 ft | 443 kts | 315° |
| 2026-05-04 15:10 | 46.60845 | 8.76299 | 36084 ft | 444 kts | 315° |
| 2026-05-04 15:11 | 46.67873 | 8.67491 | 36046 ft | 444 kts | 315° |
| 2026-05-04 15:11 | 46.72546 | 8.61618 | 36032 ft | 444 kts | 315° |
| 2026-05-04 15:12 | 46.77222 | 8.55726 | 36034 ft | 444 kts | 315° |
| 2026-05-04 15:12 | 46.81891 | 8.49832 | 36011 ft | 444 kts | 315° |
| 2026-05-04 15:13 | 46.86528 | 8.43963 | 35980 ft | 444 kts | 315° |
| 2026-05-04 15:13 | 46.91184 | 8.38054 | 35966 ft | 443 kts | 315° |
| 2026-05-04 15:14 | 46.95832 | 8.32141 | 35965 ft | 445 kts | 315° |
| 2026-05-04 15:14 | 47.00510 | 8.26176 | 35968 ft | 445 kts | 315° |
| 2026-05-04 15:15 | 47.05145 | 8.20257 | 35995 ft | 446 kts | 314° |
| 2026-05-04 15:15 | 47.09823 | 8.14262 | 36008 ft | 446 kts | 314° |
| 2026-05-04 15:16 | 47.16873 | 8.05201 | 35982 ft | 451 kts | 314° |
| 2026-05-04 15:17 | 47.23120 | 7.97147 | 35969 ft | 447 kts | 314° |
| 2026-05-04 15:17 | 47.30161 | 7.88036 | 35973 ft | 448 kts | 314° |
| 2026-05-04 15:18 | 47.34853 | 7.81946 | 35984 ft | 449 kts | 314° |
| 2026-05-04 15:19 | 47.41881 | 7.72796 | 35998 ft | 448 kts | 314° |
| 2026-05-04 15:19 | 47.47230 | 7.61940 | 35999 ft | 431 kts | 287° |
| 2026-05-04 15:20 | 47.48825 | 7.53546 | 35998 ft | 426 kts | 280° |
| 2026-05-04 15:20 | 47.50255 | 7.45033 | 35975 ft | 427 kts | 279° |
| 2026-05-04 15:21 | 47.51676 | 7.36512 | 35980 ft | 427 kts | 279° |
| 2026-05-04 15:22 | 47.53790 | 7.23705 | 35985 ft | 427 kts | 279° |
| 2026-05-04 15:22 | 47.55879 | 7.10946 | 36016 ft | 427 kts | 279° |
| 2026-05-04 15:23 | 47.57271 | 7.02389 | 36011 ft | 428 kts | 279° |
| 2026-05-04 15:23 | 47.58659 | 6.93814 | 36012 ft | 428 kts | 279° |
| 2026-05-04 15:24 | 47.61411 | 6.76676 | 36018 ft | 429 kts | 279° |
| 2026-05-04 15:25 | 47.62784 | 6.68056 | 36023 ft | 430 kts | 278° |
| 2026-05-04 15:26 | 47.64840 | 6.55069 | 36024 ft | 432 kts | 278° |
| 2026-05-04 15:26 | 47.66866 | 6.42182 | 36020 ft | 430 kts | 278° |
| 2026-05-04 15:27 | 47.68906 | 6.29230 | 36040 ft | 431 kts | 281° |
| 2026-05-04 15:28 | 47.71627 | 6.16424 | 36023 ft | 434 kts | 282° |
| 2026-05-04 15:29 | 47.74339 | 6.03644 | 36021 ft | 435 kts | 282° |
| 2026-05-04 15:30 | 47.80602 | 5.73757 | 36011 ft | 434 kts | 282° |
| 2026-05-04 15:31 | 47.83269 | 5.60894 | 35999 ft | 433 kts | 282° |
| 2026-05-04 15:32 | 47.87665 | 5.39499 | 35991 ft | 434 kts | 282° |
| 2026-05-04 15:34 | 47.94149 | 5.19151 | 35977 ft | 451 kts | 306° |
| 2026-05-04 15:34 | 48.00488 | 5.08723 | 35997 ft | 452 kts | 307° |
| 2026-05-04 15:35 | 48.06785 | 4.98293 | 35978 ft | 453 kts | 307° |
| 2026-05-04 15:36 | 48.13109 | 4.87789 | 35964 ft | 453 kts | 307° |
| 2026-05-04 15:36 | 48.17321 | 4.80767 | 35963 ft | 453 kts | 307° |
| 2026-05-04 15:37 | 48.21505 | 4.73778 | 35960 ft | 453 kts | 307° |
| 2026-05-04 15:37 | 48.25713 | 4.66727 | 35966 ft | 454 kts | 307° |
| 2026-05-04 15:38 | 48.29918 | 4.59662 | 35964 ft | 454 kts | 307° |
| 2026-05-04 15:38 | 48.34119 | 4.52586 | 35962 ft | 454 kts | 307° |
| 2026-05-04 15:39 | 48.38323 | 4.45485 | 35954 ft | 454 kts | 307° |
| 2026-05-04 15:40 | 48.44582 | 4.34878 | 35947 ft | 454 kts | 307° |
| 2026-05-04 15:40 | 48.48770 | 4.27756 | 35950 ft | 454 kts | 307° |
| 2026-05-04 15:41 | 48.52959 | 4.20613 | 35951 ft | 454 kts | 307° |
| 2026-05-04 15:41 | 48.57113 | 4.13512 | 35948 ft | 454 kts | 307° |
| 2026-05-04 15:42 | 48.61291 | 4.06348 | 35939 ft | 455 kts | 307° |
| 2026-05-04 15:42 | 48.65466 | 3.99172 | 35938 ft | 455 kts | 307° |
| 2026-05-04 15:43 | 48.69636 | 3.91984 | 35945 ft | 455 kts | 307° |
| 2026-05-04 15:43 | 48.73916 | 3.84922 | 35949 ft | 458 kts | 311° |
| 2026-05-04 15:44 | 48.78442 | 3.78221 | 35955 ft | 458 kts | 311° |
| 2026-05-04 15:44 | 48.82988 | 3.71452 | 35960 ft | 458 kts | 311° |
| 2026-05-04 15:45 | 48.87527 | 3.64672 | 35961 ft | 458 kts | 311° |
| 2026-05-04 15:45 | 48.92061 | 3.57881 | 35964 ft | 458 kts | 311° |
| 2026-05-04 15:46 | 48.96565 | 3.51118 | 35980 ft | 458 kts | 311° |
| 2026-05-04 15:46 | 49.01090 | 3.44305 | 35967 ft | 458 kts | 311° |
| 2026-05-04 15:47 | 49.05619 | 3.37465 | 35971 ft | 458 kts | 311° |
| 2026-05-04 15:47 | 49.10146 | 3.30613 | 35966 ft | 458 kts | 311° |
| 2026-05-04 15:48 | 49.14635 | 3.23799 | 35966 ft | 458 kts | 311° |
| 2026-05-04 15:48 | 49.21396 | 3.13501 | 35973 ft | 457 kts | 310° |
| 2026-05-04 15:49 | 49.25908 | 3.06603 | 35977 ft | 459 kts | 311° |
| 2026-05-04 15:49 | 49.30413 | 2.99696 | 35970 ft | 458 kts | 311° |
| 2026-05-04 15:50 | 49.34913 | 2.92781 | 35968 ft | 457 kts | 311° |
| 2026-05-04 15:50 | 49.39368 | 2.85917 | 35963 ft | 457 kts | 311° |
| 2026-05-04 15:51 | 49.43846 | 2.78997 | 35958 ft | 456 kts | 311° |
| 2026-05-04 15:51 | 49.48314 | 2.72074 | 35956 ft | 456 kts | 311° |
| 2026-05-04 15:52 | 49.52777 | 2.65137 | 35956 ft | 456 kts | 311° |
| 2026-05-04 15:52 | 49.57207 | 2.58234 | 35958 ft | 457 kts | 311° |
| 2026-05-04 15:53 | 49.61850 | 2.51491 | 35950 ft | 462 kts | 319° |
| 2026-05-04 15:53 | 49.66984 | 2.45506 | 35956 ft | 463 kts | 319° |
| 2026-05-04 15:54 | 49.72105 | 2.39483 | 35959 ft | 462 kts | 319° |
| 2026-05-04 15:54 | 49.77180 | 2.33501 | 35948 ft | 462 kts | 319° |
| 2026-05-04 15:55 | 49.82280 | 2.27479 | 35944 ft | 461 kts | 319° |
| 2026-05-04 15:55 | 49.87374 | 2.21447 | 35950 ft | 461 kts | 319° |
| 2026-05-04 15:56 | 49.92467 | 2.15400 | 35940 ft | 460 kts | 319° |
| 2026-05-04 15:56 | 49.97541 | 2.09359 | 35940 ft | 460 kts | 319° |
| 2026-05-04 15:57 | 50.02579 | 2.03345 | 35931 ft | 459 kts | 319° |
| 2026-05-04 15:57 | 50.07639 | 1.97288 | 35940 ft | 459 kts | 319° |
| 2026-05-04 15:58 | 50.12701 | 1.91211 | 35933 ft | 459 kts | 319° |
| 2026-05-04 15:58 | 50.17684 | 1.85004 | 35935 ft | 457 kts | 314° |
| 2026-05-04 15:59 | 50.22199 | 1.78134 | 35935 ft | 457 kts | 313° |
| 2026-05-04 15:59 | 50.26753 | 1.71224 | 35902 ft | 456 kts | 313° |
| 2026-05-04 16:00 | 50.29019 | 1.67773 | 35526 ft | 455 kts | 312° |
| 2026-05-04 16:00 | 50.31291 | 1.64302 | 34816 ft | 458 kts | 312° |
| 2026-05-04 16:00 | 50.33576 | 1.60802 | 33927 ft | 463 kts | 311° |
| 2026-05-04 16:00 | 50.35897 | 1.57237 | 32797 ft | 470 kts | 312° |
| 2026-05-04 16:01 | 50.38242 | 1.53630 | 31720 ft | 475 kts | 313° |
| 2026-05-04 16:01 | 50.40609 | 1.49986 | 30747 ft | 478 kts | 313° |
| 2026-05-04 16:01 | 50.42983 | 1.46330 | 29872 ft | 477 kts | 313° |
| 2026-05-04 16:01 | 50.45325 | 1.42721 | 29323 ft | 468 kts | 313° |
| 2026-05-04 16:02 | 50.47623 | 1.39175 | 28756 ft | 460 kts | 313° |
| 2026-05-04 16:02 | 50.49855 | 1.35723 | 28206 ft | 452 kts | 312° |
| 2026-05-04 16:02 | 50.54056 | 1.28671 | 27106 ft | 438 kts | 309° |
| 2026-05-04 16:03 | 50.56087 | 1.25153 | 26559 ft | 432 kts | 309° |
| 2026-05-04 16:03 | 50.58102 | 1.21680 | 26017 ft | 427 kts | 310° |
| 2026-05-04 16:03 | 50.60152 | 1.18333 | 25484 ft | 423 kts | 312° |
| 2026-05-04 16:03 | 50.62228 | 1.15082 | 24947 ft | 419 kts | 313° |
| 2026-05-04 16:04 | 50.64291 | 1.11873 | 24427 ft | 415 kts | 313° |
| 2026-05-04 16:04 | 50.68344 | 1.05514 | 23344 ft | 408 kts | 313° |
| 2026-05-04 16:04 | 50.70334 | 1.02366 | 22794 ft | 403 kts | 313° |
| 2026-05-04 16:05 | 50.72293 | 0.99256 | 22291 ft | 397 kts | 313° |
| 2026-05-04 16:05 | 50.74230 | 0.96176 | 21768 ft | 392 kts | 313° |
| 2026-05-04 16:05 | 50.78013 | 0.90144 | 20514 ft | 389 kts | 313° |
| 2026-05-04 16:06 | 50.79926 | 0.87086 | 19748 ft | 392 kts | 313° |
| 2026-05-04 16:06 | 50.84933 | 0.79079 | 18486 ft | 379 kts | 313° |
| 2026-05-04 16:07 | 50.87381 | 0.75154 | 18255 ft | 379 kts | 313° |
| 2026-05-04 16:07 | 50.92993 | 0.66133 | 17982 ft | 381 kts | 313° |
| 2026-05-04 16:08 | 50.94853 | 0.63135 | 17981 ft | 382 kts | 313° |
| 2026-05-04 16:08 | 51.00445 | 0.54101 | 17370 ft | 384 kts | 313° |
| 2026-05-04 16:09 | 51.04208 | 0.48002 | 15936 ft | 386 kts | 313° |
| 2026-05-04 16:09 | 51.07884 | 0.42065 | 15094 ft | 370 kts | 314° |
| 2026-05-04 16:10 | 51.11523 | 0.36539 | 14182 ft | 359 kts | 316° |
| 2026-05-04 16:11 | 51.16895 | 0.28403 | 12901 ft | 352 kts | 315° |
| 2026-05-04 16:11 | 51.18658 | 0.25719 | 12438 ft | 351 kts | 315° |
| 2026-05-04 16:12 | 51.23859 | 0.17721 | 11279 ft | 342 kts | 315° |
| 2026-05-04 16:12 | 51.28907 | 0.09941 | 9971 ft | 335 kts | 315° |
| 2026-05-04 16:13 | 51.32099 | 0.04828 | 9609 ft | 312 kts | 305° |
| 2026-05-04 16:13 | 51.33250 | -0.01303 | 9270 ft | 274 kts | 272° |
| 2026-05-04 16:14 | 51.33432 | -0.07036 | 8741 ft | 248 kts | 272° |
| 2026-05-04 16:14 | 51.33616 | -0.12519 | 7948 ft | 245 kts | 272° |
| 2026-05-04 16:15 | 51.33880 | -0.20624 | 7258 ft | 227 kts | 272° |
| 2026-05-04 16:16 | 51.35212 | -0.24625 | 7052 ft | 206 kts | 321° |
| 2026-05-04 16:16 | 51.38722 | -0.22811 | 6171 ft | 201 kts | 53° |
| 2026-05-04 16:17 | 51.39695 | -0.18851 | 5998 ft | 200 kts | 90° |
| 2026-05-04 16:18 | 51.39694 | -0.12212 | 5990 ft | 199 kts | 91° |
| 2026-05-04 16:18 | 51.39692 | -0.10006 | 5990 ft | 199 kts | 91° |
| 2026-05-04 16:19 | 51.39676 | -0.03373 | 5980 ft | 199 kts | 91° |
| 2026-05-04 16:19 | 51.40802 | 0.00344 | 5599 ft | 194 kts | 25° |
| 2026-05-04 16:20 | 51.43836 | -0.02240 | 4601 ft | 195 kts | 284° |
| 2026-05-04 16:20 | 51.44549 | -0.06387 | 4071 ft | 192 kts | 287° |
| 2026-05-04 16:21 | 51.45712 | -0.12556 | 3988 ft | 193 kts | 288° |
| 2026-05-04 16:22 | 51.46470 | -0.16686 | 3925 ft | 191 kts | 283° |
| 2026-05-04 16:22 | 51.46675 | -0.23045 | 2828 ft | 196 kts | 270° |
| 2026-05-04 16:23 | 51.46620 | -0.29523 | 1855 ft | 185 kts | 271° |
| 2026-05-04 16:24 | 51.46560 | -0.37062 | 924 ft | 149 kts | 272° |
| 2026-05-04 16:25 | 51.46500 | -0.40131 | 469 ft | 134 kts | 262° |
| 2026-05-04 16:26 | 51.46498 | -0.45360 | 87 ft | 64 kts | 270° |
| 2026-05-04 16:26 | 51.46661 | -0.46027 | 88 ft | 12 kts | 270° |
| 2026-05-04 16:27 | 51.46660 | -0.46377 | 88 ft | 19 kts | 270° |
| 2026-05-04 16:28 | 51.46656 | -0.47107 | 88 ft | 24 kts | 269° |
| 2026-05-04 16:28 | 51.46654 | -0.47806 | 86 ft | 23 kts | 270° |
| 2026-05-04 16:29 | 51.46666 | -0.48729 | 87 ft | 14 kts | 323° |
| 2026-05-04 16:30 | 51.46877 | -0.48645 | 86 ft | 12 kts | 91° |
| 2026-05-04 16:31 | 51.46912 | -0.48573 | 86 ft | 5 kts | 0° |
| 2026-05-04 16:31 | 51.46932 | -0.48573 | 86 ft | 0 kts | 359° |